sensor_id;sensor_type;location;lat;lon;timestamp;temperature;humidity
22607;DHT22;11470;20.968;105.834;2023-07-30T00:04:10;29.50;99.90
22607;DHT22;11470;20.968;105.834;2023-07-30T00:09:20;29.60;99.90
22607;DHT22;11470;20.968;105.834;2023-07-30T00:14:26;29.80;99.90
22607;DHT22;11470;20.968;105.834;2023-07-30T00:19:33;29.90;99.90
22607;DHT22;11470;20.968;105.834;2023-07-30T00:24:39;30.00;99.90
22607;DHT22;11470;20.968;105.834;2023-07-30T00:29:46;30.10;99.90
22607;DHT22;11470;20.968;105.834;2023-07-30T00:34:52;30.30;99.90
22607;DHT22;11470;20.968;105.834;2023-07-30T00:39:58;30.40;99.90
22607;DHT22;11470;20.968;105.834;2023-07-30T00:45:07;30.60;99.90
22607;DHT22;11470;20.968;105.834;2023-07-30T00:50:15;30.90;99.90
22607;DHT22;11470;20.968;105.834;2023-07-30T00:55:22;31.10;99.90
22607;DHT22;11470;20.968;105.834;2023-07-30T01:00:29;31.30;99.90
22607;DHT22;11470;20.968;105.834;2023-07-30T01:05:35;31.50;99.90
22607;DHT22;11470;20.968;105.834;2023-07-30T01:10:42;31.80;99.90
22607;DHT22;11470;20.968;105.834;2023-07-30T01:15:49;32.20;99.90
22607;DHT22;11470;20.968;105.834;2023-07-30T01:21:00;32.70;99.90
22607;DHT22;11470;20.968;105.834;2023-07-30T01:26:16;33.20;99.90
22607;DHT22;11470;20.968;105.834;2023-07-30T01:31:26;33.60;99.90
22607;DHT22;11470;20.968;105.834;2023-07-30T01:36:33;34.40;99.90
22607;DHT22;11470;20.968;105.834;2023-07-30T01:41:42;34.70;99.90
22607;DHT22;11470;20.968;105.834;2023-07-30T01:46:48;35.10;99.90
22607;DHT22;11470;20.968;105.834;2023-07-30T01:51:54;35.20;99.90
22607;DHT22;11470;20.968;105.834;2023-07-30T01:57:00;34.20;99.90
22607;DHT22;11470;20.968;105.834;2023-07-30T02:02:07;33.60;99.90
22607;DHT22;11470;20.968;105.834;2023-07-30T02:07:13;33.40;99.90
22607;DHT22;11470;20.968;105.834;2023-07-30T02:12:20;33.80;99.90
22607;DHT22;11470;20.968;105.834;2023-07-30T02:17:27;34.60;99.90
22607;DHT22;11470;20.968;105.834;2023-07-30T02:22:34;35.50;99.90
22607;DHT22;11470;20.968;105.834;2023-07-30T02:27:40;36.20;99.90
22607;DHT22;11470;20.968;105.834;2023-07-30T02:32:46;36.60;99.90
22607;DHT22;11470;20.968;105.834;2023-07-30T02:37:52;37.00;99.90
22607;DHT22;11470;20.968;105.834;2023-07-30T02:42:58;36.40;99.90
22607;DHT22;11470;20.968;105.834;2023-07-30T02:48:06;36.60;99.90
22607;DHT22;11470;20.968;105.834;2023-07-30T02:53:11;37.10;99.90
22607;DHT22;11470;20.968;105.834;2023-07-30T02:58:19;37.50;99.90
22607;DHT22;11470;20.968;105.834;2023-07-30T03:03:25;37.10;99.90
22607;DHT22;11470;20.968;105.834;2023-07-30T03:08:31;36.30;99.90
22607;DHT22;11470;20.968;105.834;2023-07-30T03:13:37;36.40;99.90
22607;DHT22;11470;20.968;105.834;2023-07-30T03:18:43;37.00;99.90
22607;DHT22;11470;20.968;105.834;2023-07-30T03:23:49;36.90;99.90
22607;DHT22;11470;20.968;105.834;2023-07-30T03:28:56;37.50;99.90
22607;DHT22;11470;20.968;105.834;2023-07-30T03:34:04;38.40;99.90
22607;DHT22;11470;20.968;105.834;2023-07-30T03:39:15;38.80;99.90
22607;DHT22;11470;20.968;105.834;2023-07-30T03:44:23;39.00;99.90
22607;DHT22;11470;20.968;105.834;2023-07-30T03:49:30;39.10;99.90
22607;DHT22;11470;20.968;105.834;2023-07-30T03:54:36;38.60;99.90
22607;DHT22;11470;20.968;105.834;2023-07-30T03:59:45;38.30;99.90
22607;DHT22;11470;20.968;105.834;2023-07-30T04:04:55;37.50;99.90
22607;DHT22;11470;20.968;105.834;2023-07-30T04:10:09;37.20;99.90
22607;DHT22;11470;20.968;105.834;2023-07-30T04:15:18;37.10;99.90
22607;DHT22;11470;20.968;105.834;2023-07-30T04:20:25;36.80;99.90
22607;DHT22;11470;20.968;105.834;2023-07-30T04:25:42;36.20;99.90
22607;DHT22;11470;20.968;105.834;2023-07-30T04:30:53;35.40;99.90
22607;DHT22;11470;20.968;105.834;2023-07-30T04:36:03;34.90;99.90
22607;DHT22;11470;20.968;105.834;2023-07-30T04:41:11;34.40;99.90
22607;DHT22;11470;20.968;105.834;2023-07-30T04:46:23;33.70;99.90
22607;DHT22;11470;20.968;105.834;2023-07-30T04:51:34;33.20;99.90
22607;DHT22;11470;20.968;105.834;2023-07-30T04:56:42;32.60;99.90
22607;DHT22;11470;20.968;105.834;2023-07-30T05:01:48;31.70;99.90
22607;DHT22;11470;20.968;105.834;2023-07-30T05:06:54;31.10;99.90
22607;DHT22;11470;20.968;105.834;2023-07-30T05:12:19;30.90;99.90
22607;DHT22;11470;20.968;105.834;2023-07-30T05:17:25;31.50;99.90
22607;DHT22;11470;20.968;105.834;2023-07-30T05:22:31;32.60;99.90
22607;DHT22;11470;20.968;105.834;2023-07-30T05:27:37;33.00;99.90
22607;DHT22;11470;20.968;105.834;2023-07-30T05:38:10;33.00;99.90
22607;DHT22;11470;20.968;105.834;2023-07-30T05:43:15;33.20;99.90
22607;DHT22;11470;20.968;105.834;2023-07-30T05:48:23;33.40;99.90
22607;DHT22;11470;20.968;105.834;2023-07-30T05:53:28;33.70;99.90
22607;DHT22;11470;20.968;105.834;2023-07-30T05:58:39;33.90;99.90
22607;DHT22;11470;20.968;105.834;2023-07-30T06:03:47;34.00;99.90
22607;DHT22;11470;20.968;105.834;2023-07-30T06:08:54;34.10;99.90
22607;DHT22;11470;20.968;105.834;2023-07-30T06:14:04;34.10;99.90
22607;DHT22;11470;20.968;105.834;2023-07-30T06:19:10;34.20;99.90
22607;DHT22;11470;20.968;105.834;2023-07-30T06:24:16;33.90;99.90
22607;DHT22;11470;20.968;105.834;2023-07-30T06:29:23;33.70;99.90
22607;DHT22;11470;20.968;105.834;2023-07-30T06:34:31;33.60;99.90
22607;DHT22;11470;20.968;105.834;2023-07-30T06:39:38;33.40;99.90
22607;DHT22;11470;20.968;105.834;2023-07-30T06:44:44;33.10;99.90
22607;DHT22;11470;20.968;105.834;2023-07-30T06:49:51;33.20;99.90
22607;DHT22;11470;20.968;105.834;2023-07-30T06:54:56;33.30;99.90
22607;DHT22;11470;20.968;105.834;2023-07-30T07:00:03;33.60;99.90
22607;DHT22;11470;20.968;105.834;2023-07-30T07:05:10;33.90;99.90
22607;DHT22;11470;20.968;105.834;2023-07-30T07:10:19;34.20;99.90
22607;DHT22;11470;20.968;105.834;2023-07-30T07:15:25;34.20;99.90
22607;DHT22;11470;20.968;105.834;2023-07-30T07:20:32;34.30;99.90
22607;DHT22;11470;20.968;105.834;2023-07-30T07:25:38;35.00;99.90
22607;DHT22;11470;20.968;105.834;2023-07-30T07:30:45;35.10;99.90
22607;DHT22;11470;20.968;105.834;2023-07-30T07:35:51;35.00;99.90
22607;DHT22;11470;20.968;105.834;2023-07-30T07:40:59;34.80;99.90
22607;DHT22;11470;20.968;105.834;2023-07-30T07:46:08;34.80;99.90
22607;DHT22;11470;20.968;105.834;2023-07-30T07:51:18;35.00;99.90
22607;DHT22;11470;20.968;105.834;2023-07-30T07:56:24;35.60;99.90
22607;DHT22;11470;20.968;105.834;2023-07-30T08:01:31;36.00;99.90
22607;DHT22;11470;20.968;105.834;2023-07-30T08:06:37;36.10;99.90
22607;DHT22;11470;20.968;105.834;2023-07-30T08:11:43;35.70;99.90
22607;DHT22;11470;20.968;105.834;2023-07-30T08:16:49;35.80;99.90
22607;DHT22;11470;20.968;105.834;2023-07-30T08:21:57;36.00;99.90
22607;DHT22;11470;20.968;105.834;2023-07-30T08:27:03;36.00;99.90
22607;DHT22;11470;20.968;105.834;2023-07-30T08:32:10;35.60;99.90
22607;DHT22;11470;20.968;105.834;2023-07-30T08:37:16;35.60;99.90
22607;DHT22;11470;20.968;105.834;2023-07-30T08:42:23;35.10;99.90
22607;DHT22;11470;20.968;105.834;2023-07-30T08:47:29;35.20;99.90
22607;DHT22;11470;20.968;105.834;2023-07-30T08:52:36;34.70;99.90
22607;DHT22;11470;20.968;105.834;2023-07-30T08:57:43;34.70;99.90
22607;DHT22;11470;20.968;105.834;2023-07-30T09:02:53;34.20;99.90
22607;DHT22;11470;20.968;105.834;2023-07-30T09:08:00;34.20;99.90
22607;DHT22;11470;20.968;105.834;2023-07-30T09:13:06;34.10;99.90
22607;DHT22;11470;20.968;105.834;2023-07-30T09:18:17;33.70;99.90
22607;DHT22;11470;20.968;105.834;2023-07-30T09:23:26;33.50;99.90
22607;DHT22;11470;20.968;105.834;2023-07-30T09:28:32;33.20;99.90
22607;DHT22;11470;20.968;105.834;2023-07-30T09:33:41;33.00;99.90
22607;DHT22;11470;20.968;105.834;2023-07-30T09:38:50;32.90;99.90
22607;DHT22;11470;20.968;105.834;2023-07-30T09:43:59;32.80;99.90
22607;DHT22;11470;20.968;105.834;2023-07-30T09:49:05;32.70;99.90
22607;DHT22;11470;20.968;105.834;2023-07-30T09:54:13;32.60;99.90
22607;DHT22;11470;20.968;105.834;2023-07-30T09:59:20;32.40;99.90
22607;DHT22;11470;20.968;105.834;2023-07-30T10:04:27;32.20;99.90
22607;DHT22;11470;20.968;105.834;2023-07-30T10:09:37;32.10;99.90
22607;DHT22;11470;20.968;105.834;2023-07-30T10:14:48;32.00;99.90
22607;DHT22;11470;20.968;105.834;2023-07-30T10:19:55;31.90;99.90
22607;DHT22;11470;20.968;105.834;2023-07-30T10:25:03;31.80;99.90
22607;DHT22;11470;20.968;105.834;2023-07-30T10:30:14;31.70;99.90
22607;DHT22;11470;20.968;105.834;2023-07-30T10:35:45;31.60;99.90
22607;DHT22;11470;20.968;105.834;2023-07-30T10:41:22;31.50;99.90
22607;DHT22;11470;20.968;105.834;2023-07-30T10:46:27;31.30;99.90
22607;DHT22;11470;20.968;105.834;2023-07-30T10:51:43;31.10;99.90
22607;DHT22;11470;20.968;105.834;2023-07-30T10:56:49;31.10;99.90
22607;DHT22;11470;20.968;105.834;2023-07-30T11:01:58;31.00;99.90
22607;DHT22;11470;20.968;105.834;2023-07-30T11:07:04;30.90;99.90
22607;DHT22;11470;20.968;105.834;2023-07-30T11:12:11;30.80;99.90
22607;DHT22;11470;20.968;105.834;2023-07-30T11:17:18;30.70;99.90
22607;DHT22;11470;20.968;105.834;2023-07-30T11:22:32;30.70;99.90
22607;DHT22;11470;20.968;105.834;2023-07-30T11:27:49;30.70;99.90
22607;DHT22;11470;20.968;105.834;2023-07-30T11:32:56;30.60;99.90
22607;DHT22;11470;20.968;105.834;2023-07-30T11:38:03;30.60;99.90
22607;DHT22;11470;20.968;105.834;2023-07-30T11:43:09;30.50;99.90
22607;DHT22;11470;20.968;105.834;2023-07-30T11:48:16;30.50;99.90
22607;DHT22;11470;20.968;105.834;2023-07-30T11:53:22;30.50;99.90
22607;DHT22;11470;20.968;105.834;2023-07-30T11:58:29;30.50;99.90
22607;DHT22;11470;20.968;105.834;2023-07-30T12:03:35;30.50;99.90
22607;DHT22;11470;20.968;105.834;2023-07-30T12:08:42;30.40;99.90
22607;DHT22;11470;20.968;105.834;2023-07-30T12:13:48;30.40;99.90
22607;DHT22;11470;20.968;105.834;2023-07-30T12:18:55;30.50;99.90
22607;DHT22;11470;20.968;105.834;2023-07-30T12:24:02;30.60;99.90
22607;DHT22;11470;20.968;105.834;2023-07-30T12:29:09;30.60;99.90
22607;DHT22;11470;20.968;105.834;2023-07-30T12:34:15;30.60;99.90
22607;DHT22;11470;20.968;105.834;2023-07-30T12:39:21;30.70;99.90
22607;DHT22;11470;20.968;105.834;2023-07-30T12:44:27;30.70;99.90
22607;DHT22;11470;20.968;105.834;2023-07-30T12:49:33;29.90;99.90
22607;DHT22;11470;20.968;105.834;2023-07-30T12:54:39;28.90;99.90
22607;DHT22;11470;20.968;105.834;2023-07-30T12:59:48;28.50;99.90
22607;DHT22;11470;20.968;105.834;2023-07-30T13:04:57;28.40;99.90
22607;DHT22;11470;20.968;105.834;2023-07-30T13:10:06;28.40;99.90
22607;DHT22;11470;20.968;105.834;2023-07-30T13:15:12;28.40;99.90
22607;DHT22;11470;20.968;105.834;2023-07-30T13:20:19;28.70;99.90
22607;DHT22;11470;20.968;105.834;2023-07-30T13:25:25;29.20;99.90
22607;DHT22;11470;20.968;105.834;2023-07-30T13:30:32;29.40;99.90
22607;DHT22;11470;20.968;105.834;2023-07-30T13:35:38;29.50;99.90
22607;DHT22;11470;20.968;105.834;2023-07-30T13:40:45;29.50;99.90
22607;DHT22;11470;20.968;105.834;2023-07-30T13:45:50;29.50;99.90
22607;DHT22;11470;20.968;105.834;2023-07-30T13:50:58;29.50;99.90
22607;DHT22;11470;20.968;105.834;2023-07-30T13:56:04;29.40;99.90
22607;DHT22;11470;20.968;105.834;2023-07-30T14:01:10;29.40;99.90
22607;DHT22;11470;20.968;105.834;2023-07-30T14:06:16;29.40;99.90
22607;DHT22;11470;20.968;105.834;2023-07-30T14:11:23;29.40;99.90
22607;DHT22;11470;20.968;105.834;2023-07-30T14:16:30;29.40;99.90
22607;DHT22;11470;20.968;105.834;2023-07-30T14:21:36;29.30;99.90
22607;DHT22;11470;20.968;105.834;2023-07-30T14:26:44;29.30;99.90
22607;DHT22;11470;20.968;105.834;2023-07-30T14:31:50;29.30;99.90
22607;DHT22;11470;20.968;105.834;2023-07-30T14:36:56;29.30;99.90
22607;DHT22;11470;20.968;105.834;2023-07-30T14:42:02;29.30;99.90
22607;DHT22;11470;20.968;105.834;2023-07-30T14:47:09;29.30;99.90
22607;DHT22;11470;20.968;105.834;2023-07-30T14:52:15;29.30;99.90
22607;DHT22;11470;20.968;105.834;2023-07-30T14:57:22;29.30;99.90
22607;DHT22;11470;20.968;105.834;2023-07-30T15:02:29;29.40;99.90
22607;DHT22;11470;20.968;105.834;2023-07-30T15:07:38;29.30;99.90
22607;DHT22;11470;20.968;105.834;2023-07-30T15:12:49;29.40;99.90
22607;DHT22;11470;20.968;105.834;2023-07-30T15:17:57;29.50;99.90
22607;DHT22;11470;20.968;105.834;2023-07-30T15:23:04;29.50;99.90
22607;DHT22;11470;20.968;105.834;2023-07-30T15:28:10;29.60;99.90
22607;DHT22;11470;20.968;105.834;2023-07-30T15:33:18;29.60;99.90
22607;DHT22;11470;20.968;105.834;2023-07-30T15:38:25;29.50;99.90
22607;DHT22;11470;20.968;105.834;2023-07-30T15:43:31;29.50;99.90
22607;DHT22;11470;20.968;105.834;2023-07-30T15:48:37;29.40;99.90
22607;DHT22;11470;20.968;105.834;2023-07-30T15:53:44;29.50;99.90
22607;DHT22;11470;20.968;105.834;2023-07-30T15:58:51;29.40;99.90
22607;DHT22;11470;20.968;105.834;2023-07-30T16:03:57;29.50;99.90
22607;DHT22;11470;20.968;105.834;2023-07-30T16:09:03;29.60;99.90
22607;DHT22;11470;20.968;105.834;2023-07-30T16:14:10;29.60;99.90
22607;DHT22;11470;20.968;105.834;2023-07-30T16:19:17;29.50;99.90
22607;DHT22;11470;20.968;105.834;2023-07-30T16:24:25;29.50;99.90
22607;DHT22;11470;20.968;105.834;2023-07-30T16:29:31;29.50;99.90
22607;DHT22;11470;20.968;105.834;2023-07-30T16:34:37;29.60;99.90
22607;DHT22;11470;20.968;105.834;2023-07-30T16:39:44;29.50;99.90
22607;DHT22;11470;20.968;105.834;2023-07-30T16:44:52;29.40;99.90
22607;DHT22;11470;20.968;105.834;2023-07-30T16:49:58;29.40;99.90
22607;DHT22;11470;20.968;105.834;2023-07-30T16:55:07;29.30;99.90
22607;DHT22;11470;20.968;105.834;2023-07-30T17:00:14;29.30;99.90
22607;DHT22;11470;20.968;105.834;2023-07-30T17:05:20;29.20;99.90
22607;DHT22;11470;20.968;105.834;2023-07-30T17:10:27;29.30;99.90
22607;DHT22;11470;20.968;105.834;2023-07-30T17:15:35;29.40;99.90
22607;DHT22;11470;20.968;105.834;2023-07-30T17:20:42;29.40;99.90
22607;DHT22;11470;20.968;105.834;2023-07-30T17:25:56;29.40;99.90
22607;DHT22;11470;20.968;105.834;2023-07-30T17:31:04;29.30;99.90
22607;DHT22;11470;20.968;105.834;2023-07-30T17:36:10;29.30;99.90
22607;DHT22;11470;20.968;105.834;2023-07-30T17:41:20;29.20;99.90
22607;DHT22;11470;20.968;105.834;2023-07-30T17:46:25;29.20;99.90
22607;DHT22;11470;20.968;105.834;2023-07-30T17:51:32;29.20;99.90
22607;DHT22;11470;20.968;105.834;2023-07-30T17:56:38;29.20;99.90
22607;DHT22;11470;20.968;105.834;2023-07-30T18:01:44;29.20;99.90
22607;DHT22;11470;20.968;105.834;2023-07-30T18:06:50;29.20;99.90
22607;DHT22;11470;20.968;105.834;2023-07-30T18:11:59;29.20;99.90
22607;DHT22;11470;20.968;105.834;2023-07-30T18:17:05;29.20;99.90
22607;DHT22;11470;20.968;105.834;2023-07-30T18:22:11;29.10;99.90
22607;DHT22;11470;20.968;105.834;2023-07-30T18:27:17;29.10;99.90
22607;DHT22;11470;20.968;105.834;2023-07-30T18:32:23;29.10;99.90
22607;DHT22;11470;20.968;105.834;2023-07-30T18:37:31;29.10;99.90
22607;DHT22;11470;20.968;105.834;2023-07-30T18:42:37;29.10;99.90
22607;DHT22;11470;20.968;105.834;2023-07-30T18:47:45;29.10;99.90
22607;DHT22;11470;20.968;105.834;2023-07-30T18:52:51;29.10;99.90
22607;DHT22;11470;20.968;105.834;2023-07-30T18:57:57;29.00;99.90
22607;DHT22;11470;20.968;105.834;2023-07-30T19:03:03;28.90;99.90
22607;DHT22;11470;20.968;105.834;2023-07-30T19:08:10;28.90;99.90
22607;DHT22;11470;20.968;105.834;2023-07-30T19:13:15;28.80;99.90
22607;DHT22;11470;20.968;105.834;2023-07-30T19:18:22;28.90;99.90
22607;DHT22;11470;20.968;105.834;2023-07-30T19:23:27;28.90;99.90
22607;DHT22;11470;20.968;105.834;2023-07-30T19:28:34;29.00;99.90
22607;DHT22;11470;20.968;105.834;2023-07-30T19:33:40;29.00;99.90
22607;DHT22;11470;20.968;105.834;2023-07-30T19:38:47;29.00;99.90
22607;DHT22;11470;20.968;105.834;2023-07-30T19:43:52;28.90;99.90
22607;DHT22;11470;20.968;105.834;2023-07-30T19:48:58;28.90;99.90
22607;DHT22;11470;20.968;105.834;2023-07-30T19:54:06;28.90;99.90
22607;DHT22;11470;20.968;105.834;2023-07-30T19:59:14;29.00;99.90
22607;DHT22;11470;20.968;105.834;2023-07-30T20:04:20;29.00;99.90
22607;DHT22;11470;20.968;105.834;2023-07-30T20:09:28;29.00;99.90
22607;DHT22;11470;20.968;105.834;2023-07-30T20:14:33;28.90;99.90
22607;DHT22;11470;20.968;105.834;2023-07-30T20:19:43;28.90;99.90
22607;DHT22;11470;20.968;105.834;2023-07-30T20:24:49;29.00;99.90
22607;DHT22;11470;20.968;105.834;2023-07-30T20:29:55;28.90;99.90
22607;DHT22;11470;20.968;105.834;2023-07-30T20:35:01;28.90;99.90
22607;DHT22;11470;20.968;105.834;2023-07-30T20:40:08;28.90;99.90
22607;DHT22;11470;20.968;105.834;2023-07-30T20:45:14;29.00;99.90
22607;DHT22;11470;20.968;105.834;2023-07-30T20:50:20;29.30;99.90
22607;DHT22;11470;20.968;105.834;2023-07-30T20:55:27;28.80;99.90
22607;DHT22;11470;20.968;105.834;2023-07-30T21:00:33;27.80;99.90
22607;DHT22;11470;20.968;105.834;2023-07-30T21:05:39;27.00;99.90
22607;DHT22;11470;20.968;105.834;2023-07-30T21:10:45;26.70;99.90
22607;DHT22;11470;20.968;105.834;2023-07-30T21:15:51;26.60;99.90
22607;DHT22;11470;20.968;105.834;2023-07-30T21:20:57;26.40;99.90
22607;DHT22;11470;20.968;105.834;2023-07-30T21:26:03;26.40;99.90
22607;DHT22;11470;20.968;105.834;2023-07-30T21:31:10;26.40;99.90
22607;DHT22;11470;20.968;105.834;2023-07-30T21:36:16;26.50;99.90
22607;DHT22;11470;20.968;105.834;2023-07-30T21:41:22;26.50;99.90
22607;DHT22;11470;20.968;105.834;2023-07-30T21:46:29;26.50;99.90
22607;DHT22;11470;20.968;105.834;2023-07-30T21:51:35;26.50;99.90
22607;DHT22;11470;20.968;105.834;2023-07-30T21:56:41;26.50;99.90
22607;DHT22;11470;20.968;105.834;2023-07-30T22:01:46;26.50;99.90
22607;DHT22;11470;20.968;105.834;2023-07-30T22:06:53;26.60;99.90
22607;DHT22;11470;20.968;105.834;2023-07-30T22:11:59;26.70;99.90
22607;DHT22;11470;20.968;105.834;2023-07-30T22:17:05;26.80;99.90
22607;DHT22;11470;20.968;105.834;2023-07-30T22:22:11;26.80;99.90
22607;DHT22;11470;20.968;105.834;2023-07-30T22:27:18;26.80;99.90
22607;DHT22;11470;20.968;105.834;2023-07-30T22:32:24;26.80;99.90
22607;DHT22;11470;20.968;105.834;2023-07-30T22:37:31;26.90;99.90
22607;DHT22;11470;20.968;105.834;2023-07-30T22:42:37;26.80;99.90
22607;DHT22;11470;20.968;105.834;2023-07-30T22:47:43;26.80;99.90
22607;DHT22;11470;20.968;105.834;2023-07-30T22:52:49;26.80;99.90
22607;DHT22;11470;20.968;105.834;2023-07-30T22:57:55;26.80;99.90
22607;DHT22;11470;20.968;105.834;2023-07-30T23:03:01;26.90;99.90
22607;DHT22;11470;20.968;105.834;2023-07-30T23:08:08;27.10;99.90
22607;DHT22;11470;20.968;105.834;2023-07-30T23:13:17;27.20;99.90
22607;DHT22;11470;20.968;105.834;2023-07-30T23:18:24;27.40;99.90
22607;DHT22;11470;20.968;105.834;2023-07-30T23:23:31;27.60;99.90
22607;DHT22;11470;20.968;105.834;2023-07-30T23:28:38;27.70;99.90
22607;DHT22;11470;20.968;105.834;2023-07-30T23:33:44;27.80;99.90
22607;DHT22;11470;20.968;105.834;2023-07-30T23:38:51;27.80;99.90
22607;DHT22;11470;20.968;105.834;2023-07-30T23:43:57;27.80;99.90
22607;DHT22;11470;20.968;105.834;2023-07-30T23:49:04;27.80;99.90
22607;DHT22;11470;20.968;105.834;2023-07-30T23:54:10;27.90;99.90
22607;DHT22;11470;20.968;105.834;2023-07-30T23:59:17;28.00;99.90
